Time;durP1;ratioP1;P1;durP2;ratioP2;P2;SDS_P1;SDS_P2;PMS_P1;PMS_P2;Temp;Humidity;BMP_temperature;BMP_pressure;BME280_temperature;BME280_humidity;BME280_pressure;Samples;Min_cycle;Max_cycle;Signal;HPM_P1;HPM_P2
2022/02/11 00:00:03;;;;;;;3.53;1.60;;;5.20;99.90;;;;;;5047539;28;20029;-59
2022/02/11 00:07:45;;;;;;;5.80;1.27;;;5.20;99.90;;;;;;5047356;28;20098;-59
2022/02/11 00:10:11;;;;;;;5.20;1.20;;;5.20;99.90;;;;;;5047127;28;20083;-59
2022/02/11 00:12:36;;;;;;;5.85;1.38;;;5.20;99.90;;;;;;5047031;28;20477;-59
2022/02/11 00:17:35;;;;;;;4.72;0.90;;;5.10;99.90;;;;;;5047602;28;20036;-62
2022/02/11 00:20:00;;;;;;;;;;;5.10;99.90;;;;;;5047562;28;20033;-61
2022/02/11 00:22:26;;;;;;;4.80;0.70;;;5.10;99.90;;;;;;5046255;28;19909;-57
2022/02/11 00:24:53;;;;;;;1.83;0.57;;;5.10;99.90;;;;;;5046557;28;20071;-58
2022/02/11 00:28:04;;;;;;;1.83;0.60;;;5.10;99.90;;;;;;5046177;28;20445;-63
2022/02/11 00:33:17;;;;;;;2.33;1.58;;;5.00;99.90;;;;;;5045295;28;20082;-58
2022/02/11 00:36:06;;;;;;;7.07;1.33;;;5.00;99.90;;;;;;5046351;28;20033;-57
2022/02/11 00:38:49;;;;;;;2.50;0.95;;;5.00;99.90;;;;;;5045459;28;20041;-59
2022/02/11 01:02:49;;;;;;;4.10;1.13;;;5.00;99.90;;;;;;5040670;28;20040;-56
2022/02/11 01:05:14;;;;;;;2.20;1.20;;;5.00;99.90;;;;;;5047225;28;20415;-57
2022/02/11 01:07:40;;;;;;;3.65;1.40;;;5.00;99.90;;;;;;5045719;28;20028;-57
2022/02/11 01:10:06;;;;;;;4.55;1.40;;;5.00;99.90;;;;;;5044799;28;20029;-58
2022/02/11 01:12:32;;;;;;;6.35;1.55;;;5.00;99.90;;;;;;5045397;28;20167;-57
2022/02/11 01:14:57;;;;;;;5.82;1.48;;;5.00;99.90;;;;;;5046320;28;20075;-61
2022/02/11 01:17:41;;;;;;;6.72;1.20;;;4.90;99.90;;;;;;5043833;28;20040;-61
2022/02/11 01:20:14;;;;;;;5.43;2.40;;;4.90;99.90;;;;;;5045995;28;20136;-58
2022/02/11 01:42:20;;;;;;;4.45;2.42;;;4.80;99.90;;;;;;5047422;28;20885;-60
2022/02/11 01:47:22;;;;;;;8.13;2.88;;;4.80;99.90;;;;;;5049860;28;20033;-60
2022/02/11 01:53:04;;;;;;;6.55;3.33;;;4.80;99.90;;;;;;5049988;28;20070;-59
2022/02/11 02:05:39;;;;;;;4.63;2.90;;;4.80;99.90;;;;;;5049401;28;20029;-61
2022/02/11 02:13:52;;;;;;;6.50;3.42;;;4.80;99.90;;;;;;5048128;28;20098;-61
2022/02/11 02:56:45;;;;;;;10.13;3.35;;;4.80;99.90;;;;;;5048845;28;20122;-60
2022/02/11 03:02:07;;;;;;;7.53;3.25;;;4.80;99.90;;;;;;5047050;28;20033;-61
2022/02/11 03:51:09;;;;;;;10.27;3.70;;;4.80;99.90;;;;;;5046177;28;20110;-60
2022/02/11 04:55:29;;;;;;;12.52;5.07;;;4.00;99.90;;;;;;5008283;28;20479;-61
2022/02/11 05:00:39;;;;;;;10.50;5.63;;;4.00;99.90;;;;;;5011686;28;20080;-56
2022/02/11 05:03:06;;;;;;;7.88;5.05;;;4.10;99.90;;;;;;5007070;28;20026;-59
2022/02/11 05:05:48;;;;;;;10.13;6.45;;;4.00;99.90;;;;;;5008513;28;20116;-58
2022/02/11 05:08:16;;;;;;;9.77;4.25;;;4.00;99.90;;;;;;5009496;28;20424;-57
2022/02/11 05:10:41;;;;;;;6.85;4.47;;;4.00;99.90;;;;;;5010586;28;20034;-57
2022/02/11 05:13:07;;;;;;;8.40;4.10;;;4.00;99.90;;;;;;5007138;28;20029;-60
2022/02/11 05:15:32;;;;;;;11.32;5.15;;;3.90;99.90;;;;;;5007379;28;20029;-56
2022/02/11 05:18:00;;;;;;;9.15;4.20;;;3.80;99.90;;;;;;5014204;28;20443;-55
2022/02/11 05:20:25;;;;;;;6.93;3.92;;;3.80;99.90;;;;;;5014720;28;20099;-60
2022/02/11 05:22:51;;;;;;;6.50;4.15;;;3.70;99.90;;;;;;5008182;28;20034;-59
2022/02/11 05:25:16;;;;;;;7.93;4.72;;;3.70;99.90;;;;;;5012445;28;20343;-57
2022/02/11 05:27:42;;;;;;;5.55;4.70;;;3.60;99.90;;;;;;5007906;28;20037;-58
2022/02/11 05:30:08;;;;;;;7.90;5.00;;;3.50;99.90;;;;;;5006742;28;20041;-60
2022/02/11 05:32:34;;;;;;;7.60;4.57;;;3.50;99.90;;;;;;5011508;28;20030;-56
2022/02/11 05:35:00;;;;;;;8.70;4.72;;;3.40;99.90;;;;;;5007367;28;20509;-58
2022/02/11 05:37:26;;;;;;;9.02;5.40;;;3.40;99.90;;;;;;5008276;28;20030;-55
2022/02/11 05:39:51;;;;;;;12.90;5.25;;;3.40;99.90;;;;;;5008990;28;20196;-58
2022/02/11 05:42:17;;;;;;;9.50;6.07;;;3.30;99.90;;;;;;5007434;28;20026;-58
2022/02/11 05:44:42;;;;;;;10.63;6.43;;;3.30;99.90;;;;;;5006987;28;20034;-55
2022/02/11 05:47:08;;;;;;;10.52;6.20;;;3.30;99.90;;;;;;5013529;28;20026;-58
2022/02/11 05:49:33;;;;;;;7.28;4.60;;;3.30;99.90;;;;;;5012012;28;20037;-58
2022/02/11 05:51:59;;;;;;;12.10;5.95;;;3.20;99.90;;;;;;5008819;28;20048;-57
2022/02/11 05:54:24;;;;;;;9.43;6.43;;;3.20;99.90;;;;;;5006567;28;20068;-57
2022/02/11 05:56:50;;;;;;;9.93;5.68;;;3.20;99.90;;;;;;5008644;28;20033;-57
2022/02/11 05:59:17;;;;;;;11.75;6.10;;;3.20;99.90;;;;;;5007709;28;20398;-59
2022/02/11 06:01:43;;;;;;;13.75;6.53;;;3.10;99.90;;;;;;5011386;28;20457;-55
2022/02/11 06:04:09;;;;;;;10.50;5.78;;;3.10;99.90;;;;;;5007159;28;20029;-58
2022/02/11 06:06:34;;;;;;;11.70;6.55;;;3.10;99.90;;;;;;5008702;28;20030;-59
2022/02/11 06:09:00;;;;;;;12.15;7.20;;;3.10;99.90;;;;;;5008031;28;20510;-59
2022/02/11 06:11:29;;;;;;;;;;;3.10;99.90;;;;;;5004368;28;20030;-61
2022/02/11 06:13:56;;;;;;;10.05;6.30;;;3.10;99.90;;;;;;5011223;28;20351;-59
2022/02/11 06:16:22;;;;;;;10.88;6.90;;;3.10;99.90;;;;;;5004550;28;20041;-59
2022/02/11 06:18:48;;;;;;;12.57;6.53;;;3.10;99.90;;;;;;5004312;28;20743;-60
2022/02/11 06:21:14;;;;;;;11.18;6.45;;;3.10;99.90;;;;;;5012412;28;20085;-59
2022/02/11 06:23:39;;;;;;;11.70;7.30;;;3.10;99.90;;;;;;5004503;28;20556;-60
2022/02/11 06:26:05;;;;;;;;;;;3.10;99.90;;;;;;5008043;28;20040;-59
2022/02/11 06:28:30;;;;;;;17.73;6.13;;;3.10;99.90;;;;;;5010369;28;19992;-59
2022/02/11 06:30:56;;;;;;;8.57;5.88;;;3.10;99.90;;;;;;5014739;28;20146;-58
2022/02/11 06:33:21;;;;;;;;;;;3.10;99.90;;;;;;5010517;28;20036;-59
2022/02/11 06:35:47;;;;;;;11.00;6.05;;;3.20;99.90;;;;;;5010186;28;19906;-59
2022/02/11 06:38:12;;;;;;;;;;;3.30;99.90;;;;;;5011147;28;20133;-59
2022/02/11 06:40:38;;;;;;;14.90;7.35;;;3.30;99.90;;;;;;5014670;28;19913;-60
2022/02/11 06:43:06;;;;;;;16.45;6.78;;;3.50;99.90;;;;;;5012081;28;20092;-59
2022/02/11 06:45:32;;;;;;;14.13;7.00;;;3.50;99.90;;;;;;5024679;28;20384;-60
2022/02/11 06:47:58;;;;;;;15.88;6.20;;;3.60;99.90;;;;;;5012240;28;20505;-59
2022/02/11 06:50:23;;;;;;;11.63;7.38;;;3.70;99.90;;;;;;5013588;28;20108;-58
2022/02/11 06:52:49;;;;;;;12.82;7.35;;;3.70;99.90;;;;;;5012749;28;20513;-59
2022/02/11 06:55:15;;;;;;;;;;;3.80;99.90;;;;;;5020510;28;20028;-61
2022/02/11 06:57:42;;;;;;;28.17;8.18;;;3.80;99.90;;;;;;5016461;28;19918;-59
2022/02/11 07:00:12;;;;;;;14.32;7.57;;;3.90;99.90;;;;;;5007364;28;20106;-59
2022/02/11 07:02:38;;;;;;;11.30;6.28;;;3.90;99.90;;;;;;5005918;28;20406;-59
2022/02/11 07:05:04;;;;;;;17.48;7.28;;;3.90;99.90;;;;;;5013606;28;20374;-59
2022/02/11 07:07:30;;;;;;;12.93;8.02;;;3.90;99.90;;;;;;5008636;28;20109;-60
2022/02/11 07:09:55;;;;;;;11.48;6.25;;;3.90;99.90;;;;;;5009819;28;20030;-58
2022/02/11 07:12:21;;;;;;;;;;;3.80;99.90;;;;;;5008854;28;20072;-58
2022/02/11 07:14:46;;;;;;;12.05;6.40;;;3.80;99.90;;;;;;5008897;28;19920;-61
2022/02/11 07:17:12;;;;;;;12.40;6.90;;;3.80;99.90;;;;;;5009044;28;20064;-60
2022/02/11 07:19:38;;;;;;;13.10;6.70;;;3.70;99.90;;;;;;5007863;28;20038;-59
2022/02/11 07:22:04;;;;;;;12.23;7.70;;;3.80;99.90;;;;;;5007080;28;20040;-59
2022/02/11 07:24:30;;;;;;;;;;;3.80;99.90;;;;;;5010173;28;20137;-61
2022/02/11 07:26:56;;;;;;;13.93;7.60;;;3.80;99.90;;;;;;5007905;28;20375;-59
2022/02/11 07:29:22;;;;;;;14.85;7.30;;;3.80;99.90;;;;;;5007991;28;20029;-56
2022/02/11 07:31:48;;;;;;;22.25;7.53;;;3.90;99.90;;;;;;5011365;28;20033;-61
2022/02/11 07:34:13;;;;;;;23.30;8.07;;;3.90;99.90;;;;;;5011147;28;20029;-60
2022/02/11 07:36:38;;;;;;;;;;;4.00;99.90;;;;;;5011408;28;20025;-60
2022/02/11 07:39:07;;;;;;;17.13;7.57;;;4.00;99.90;;;;;;5008221;28;19909;-59
2022/02/11 07:41:33;;;;;;;12.75;7.38;;;4.00;99.90;;;;;;5009659;28;20607;-57
2022/02/11 07:43:58;;;;;;;10.07;6.78;;;4.10;99.90;;;;;;5015583;28;20033;-59
2022/02/11 07:46:24;;;;;;;13.20;7.38;;;4.10;99.90;;;;;;5009555;28;20045;-59
2022/02/11 07:48:49;;;;;;;12.25;7.22;;;4.10;99.90;;;;;;5008694;28;20053;-59
2022/02/11 07:51:15;;;;;;;14.35;6.57;;;4.20;99.90;;;;;;5008645;28;20032;-58
2022/02/11 07:53:42;;;;;;;13.57;7.53;;;4.20;99.90;;;;;;5007760;28;20091;-59
2022/02/11 07:56:07;;;;;;;22.05;7.32;;;4.20;99.90;;;;;;5012792;28;20033;-57
2022/02/11 07:58:34;;;;;;;11.80;6.97;;;4.30;99.90;;;;;;5012208;28;20052;-59
2022/02/11 08:01:00;;;;;;;;;;;4.30;99.90;;;;;;5013721;28;20063;-59
2022/02/11 08:03:27;;;;;;;13.77;6.75;;;4.30;99.90;;;;;;5016099;28;19909;-61
2022/02/11 08:05:52;;;;;;;15.27;6.70;;;4.40;99.90;;;;;;5015903;28;20061;-58
2022/02/11 08:08:20;;;;;;;9.18;6.68;;;4.40;99.90;;;;;;5012064;28;20045;-60
2022/02/11 08:10:46;;;;;;;12.27;7.30;;;4.40;99.90;;;;;;5010853;28;20037;-59
2022/02/11 08:13:12;;;;;;;26.15;6.13;;;4.50;99.90;;;;;;5011846;28;20118;-59
2022/02/11 08:15:37;;;;;;;13.30;6.18;;;4.50;99.90;;;;;;5007920;28;20116;-58
2022/02/11 08:18:03;;;;;;;11.95;6.40;;;4.50;99.90;;;;;;5007863;28;20022;-58
2022/02/11 08:20:28;;;;;;;6.30;4.32;;;4.50;99.90;;;;;;5010288;28;20029;-57
2022/02/11 08:22:54;;;;;;;11.63;5.65;;;4.60;99.90;;;;;;5007878;28;20100;-61
2022/02/11 08:25:20;;;;;;;;;;;4.60;99.90;;;;;;5007998;28;20103;-59
2022/02/11 08:27:47;;;;;;;8.27;4.88;;;4.70;99.90;;;;;;5007249;28;20355;-58
2022/02/11 08:30:14;;;;;;;8.43;4.38;;;4.70;99.90;;;;;;5006400;28;20033;-59
2022/02/11 08:32:41;;;;;;;19.30;5.60;;;4.70;99.90;;;;;;5008552;28;20038;-58
2022/02/11 08:35:06;;;;;;;;;;;4.70;99.90;;;;;;5006888;28;20029;-57
2022/02/11 08:37:32;;;;;;;16.33;5.57;;;4.70;99.90;;;;;;5004451;28;19932;-56
2022/02/11 08:39:57;;;;;;;12.55;6.75;;;4.70;99.90;;;;;;5008420;28;20431;-60
2022/02/11 08:42:23;;;;;;;14.15;4.30;;;4.70;99.90;;;;;;5008729;28;20029;-58
2022/02/11 08:44:48;;;;;;;11.25;4.72;;;4.70;99.90;;;;;;5009688;28;20517;-58
2022/02/11 08:47:15;;;;;;;10.95;4.50;;;4.70;99.90;;;;;;5008035;28;20079;-60
2022/02/11 08:49:41;;;;;;;17.88;4.85;;;4.70;99.90;;;;;;5006105;28;20057;-57
2022/02/11 08:52:07;;;;;;;11.57;4.78;;;4.80;99.90;;;;;;5005930;28;20034;-57
2022/02/11 08:54:33;;;;;;;12.85;4.32;;;4.80;99.90;;;;;;5006868;28;20040;-59
2022/02/11 08:56:58;;;;;;;;;;;4.80;99.90;;;;;;5006404;28;20113;-59
2022/02/11 08:59:24;;;;;;;6.25;3.50;;;4.80;99.90;;;;;;5009026;28;19931;-56
2022/02/11 09:01:50;;;;;;;4.97;3.10;;;4.80;99.90;;;;;;5007446;28;20025;-58
2022/02/11 09:04:16;;;;;;;3.60;3.30;;;4.80;99.90;;;;;;5011575;28;20398;-56
2022/02/11 09:06:43;;;;;;;;;;;4.90;99.90;;;;;;5006506;28;20033;-58
2022/02/11 09:09:08;;;;;;;4.95;2.42;;;4.90;99.90;;;;;;5005929;28;19917;-58
2022/02/11 09:11:35;;;;;;;4.10;2.72;;;4.90;99.90;;;;;;5006730;28;20514;-59
2022/02/11 09:14:00;;;;;;;3.13;1.92;;;4.90;99.90;;;;;;5005228;28;20033;-56
2022/02/11 09:16:26;;;;;;;5.38;2.88;;;5.00;99.90;;;;;;5006889;28;20026;-57
2022/02/11 09:18:52;;;;;;;;;;;5.00;99.90;;;;;;5009139;28;20476;-57
2022/02/11 09:21:17;;;;;;;3.88;2.05;;;5.10;99.90;;;;;;5006406;28;19940;-59
2022/02/11 09:23:43;;;;;;;;;;;5.20;99.90;;;;;;5009098;28;20125;-59
2022/02/11 09:26:10;;;;;;;7.22;2.03;;;5.30;99.90;;;;;;5005608;28;20488;-59
2022/02/11 09:28:36;;;;;;;5.57;2.47;;;5.30;99.90;;;;;;5009296;28;20071;-54
2022/02/11 09:31:02;;;;;;;9.38;2.13;;;5.30;99.90;;;;;;5004524;28;20022;-61
2022/02/11 09:33:27;;;;;;;3.47;2.33;;;5.30;99.90;;;;;;5006023;28;20041;-59
2022/02/11 09:35:53;;;;;;;3.63;1.75;;;5.30;99.90;;;;;;5006449;28;20483;-57
2022/02/11 09:38:19;;;;;;;2.67;1.80;;;5.40;99.90;;;;;;5007250;28;20076;-61
2022/02/11 09:40:50;;;;;;;7.28;1.67;;;5.40;99.90;;;;;;5009036;28;20069;-59
2022/02/11 09:43:17;;;;;;;4.88;2.08;;;5.40;99.90;;;;;;5014724;28;20037;-58
2022/02/11 09:45:44;;;;;;;2.75;1.75;;;5.50;99.90;;;;;;5014477;28;20029;-58
2022/02/11 09:48:10;;;;;;;7.13;2.10;;;5.50;99.90;;;;;;5014075;28;20030;-59
2022/02/11 09:50:36;;;;;;;6.03;1.25;;;5.60;99.90;;;;;;5016708;28;20030;-61
2022/02/11 09:53:02;;;;;;;4.03;0.90;;;5.70;99.90;;;;;;5013905;28;20070;-59
2022/02/11 09:55:35;;;;;;;3.58;0.77;;;5.60;99.90;;;;;;5012912;28;20063;-61
2022/02/11 09:58:10;;;;;;;6.40;1.73;;;5.60;99.90;;;;;;5014386;28;20045;-60
2022/02/11 10:00:38;;;;;;;5.25;1.20;;;5.60;99.90;;;;;;5014318;28;20160;-59
2022/02/11 10:03:18;;;;;;;7.13;0.80;;;5.60;99.90;;;;;;5016640;28;20038;-56
2022/02/11 10:05:46;;;;;;;3.58;1.25;;;5.60;99.90;;;;;;5011916;28;20026;-55
2022/02/11 10:08:12;;;;;;;6.05;1.40;;;5.60;99.90;;;;;;5009008;28;20037;-59
2022/02/11 10:10:47;;;;;;;7.25;0.90;;;5.70;99.90;;;;;;5010016;28;20395;-56
2022/02/11 10:13:18;;;;;;;4.35;1.25;;;5.80;99.90;;;;;;5012472;28;20041;-60
2022/02/11 10:15:49;;;;;;;4.25;0.70;;;5.80;99.90;;;;;;5012751;28;20033;-59
2022/02/11 10:18:17;;;;;;;3.38;0.75;;;5.90;99.90;;;;;;5010775;28;20490;-59
2022/02/11 10:20:50;;;;;;;3.33;0.82;;;5.90;99.90;;;;;;5011106;28;20034;-59
2022/02/11 10:23:16;;;;;;;2.55;0.40;;;5.90;99.90;;;;;;5012614;28;20447;-57
2022/02/11 10:26:10;;;;;;;0.65;0.50;;;5.80;99.90;;;;;;5010669;28;20033;-58
2022/02/11 10:28:40;;;;;;;5.18;0.70;;;5.80;99.90;;;;;;5010221;28;20030;-58
2022/02/11 10:31:14;;;;;;;1.98;0.55;;;5.70;99.90;;;;;;5007999;28;20048;-58
2022/02/11 10:33:53;;;;;;;0.98;0.40;;;5.70;99.90;;;;;;5013486;28;20580;-58
2022/02/11 10:36:24;;;;;;;2.72;0.50;;;5.60;99.90;;;;;;5012367;28;20068;-60
2022/02/11 10:39:09;;;;;;;3.13;0.50;;;5.60;99.90;;;;;;5011193;28;20030;-59
2022/02/11 10:41:49;;;;;;;1.27;0.40;;;5.50;99.90;;;;;;5009399;28;20519;-58
2022/02/11 10:44:16;;;;;;;2.15;0.70;;;5.40;99.90;;;;;;5010650;28;20037;-55
2022/02/11 10:46:46;;;;;;;6.00;0.55;;;5.40;99.90;;;;;;5008621;28;20041;-56
2022/02/11 10:49:13;;;;;;;1.05;0.60;;;5.40;99.90;;;;;;5009696;28;20038;-61
2022/02/11 10:51:49;;;;;;;1.98;0.73;;;5.40;99.90;;;;;;5027569;22;20053;-63
2022/02/11 10:54:24;;;;;;;2.45;0.50;;;5.30;99.90;;;;;;5013274;28;20034;-62
2022/02/11 10:56:52;;;;;;;2.20;0.50;;;5.30;99.90;;;;;;5014458;28;20528;-62
2022/02/11 10:59:45;;;;;;;3.20;0.55;;;5.30;99.90;;;;;;5017911;28;20084;-60
2022/02/11 11:02:17;;;;;;;3.65;0.50;;;5.40;99.90;;;;;;5006177;28;20575;-63
2022/02/11 11:04:45;;;;;;;5.60;1.17;;;5.40;99.90;;;;;;5016247;28;20042;-62
2022/02/11 11:07:13;;;;;;;3.30;0.68;;;5.40;99.90;;;;;;5016125;28;20041;-60
2022/02/11 11:09:45;;;;;;;10.30;0.88;;;5.50;99.90;;;;;;5012273;28;20067;-61
2022/02/11 11:12:14;;;;;;;6.18;0.57;;;5.50;99.90;;;;;;5014606;28;20030;-62
2022/02/11 11:14:44;;;;;;;4.45;0.40;;;5.40;99.90;;;;;;5006066;28;20033;-60
2022/02/11 11:17:10;;;;;;;4.10;0.55;;;5.40;99.90;;;;;;5011156;28;20116;-62
2022/02/11 11:19:37;;;;;;;1.00;0.40;;;5.40;99.90;;;;;;5011550;28;20431;-62
2022/02/11 11:22:16;;;;;;;3.17;0.40;;;5.40;99.90;;;;;;5014151;28;20041;-60
2022/02/11 11:24:50;;;;;;;2.63;0.47;;;5.50;99.90;;;;;;5016172;28;20033;-62
2022/02/11 11:27:42;;;;;;;2.45;0.55;;;5.50;99.90;;;;;;5017897;28;20117;-62
2022/02/11 11:30:31;;;;;;;0.93;0.45;;;5.50;99.90;;;;;;5017596;28;21584;-59
2022/02/11 11:33:09;;;;;;;2.17;0.43;;;5.50;99.90;;;;;;5013258;28;20372;-62
2022/02/11 11:35:44;;;;;;;0.70;0.68;;;5.50;99.90;;;;;;5012661;28;20038;-62
2022/02/11 11:38:18;;;;;;;3.70;0.50;;;5.50;99.90;;;;;;5015124;28;20041;-62
2022/02/11 11:41:12;;;;;;;2.70;0.40;;;5.50;99.90;;;;;;5012022;28;20026;-61
2022/02/11 11:43:39;;;;;;;0.65;0.43;;;5.50;99.90;;;;;;5014584;28;20117;-61
2022/02/11 11:46:16;;;;;;;1.13;0.40;;;5.50;99.90;;;;;;5016305;28;20033;-62
2022/02/11 11:49:08;;;;;;;3.20;0.40;;;5.50;99.90;;;;;;5013796;28;20099;-62
2022/02/11 11:51:36;;;;;;;1.58;0.68;;;5.40;99.90;;;;;;5008533;28;20036;-62
2022/02/11 11:54:23;;;;;;;3.00;0.57;;;5.40;99.90;;;;;;5021346;28;20030;-62
2022/02/11 11:57:05;;;;;;;0.73;0.30;;;5.40;99.90;;;;;;5007972;28;20042;-61
2022/02/11 11:59:36;;;;;;;0.50;0.30;;;5.50;99.90;;;;;;5018111;28;20037;-64
2022/02/11 12:02:12;;;;;;;1.98;1.15;;;5.50;99.90;;;;;;5007477;28;20034;-63
2022/02/11 12:04:40;;;;;;;2.38;0.50;;;5.50;99.90;;;;;;5009975;28;20132;-61
2022/02/11 12:07:15;;;;;;;2.45;0.75;;;5.60;99.90;;;;;;5009069;28;20022;-62
2022/02/11 12:09:44;;;;;;;5.55;1.23;;;5.60;99.90;;;;;;5015575;28;20112;-63
2022/02/11 12:12:13;;;;;;;4.97;1.77;;;5.60;99.90;;;;;;5011455;28;20089;-63
2022/02/11 12:14:40;;;;;;;3.55;1.13;;;5.60;99.90;;;;;;5007230;28;20483;-63
2022/02/11 12:17:10;;;;;;;1.90;0.73;;;5.70;99.90;;;;;;5010700;28;20440;-61
2022/02/11 12:19:38;;;;;;;1.33;0.50;;;5.70;99.90;;;;;;5008103;28;20038;-62
2022/02/11 12:22:07;;;;;;;1.23;0.60;;;5.70;99.90;;;;;;5015201;28;20037;-63
2022/02/11 12:27:35;;;;;;;2.40;0.70;;;5.60;99.90;;;;;;5019540;28;20066;-61
2022/02/11 12:30:15;;;;;;;1.45;0.60;;;5.60;99.90;;;;;;5014525;28;20083;-63
2022/02/11 12:32:55;;;;;;;0.85;0.60;;;5.60;99.90;;;;;;5011445;28;20134;-63
2022/02/11 12:35:27;;;;;;;1.05;0.50;;;5.60;99.90;;;;;;5008959;28;20033;-63
2022/02/11 12:37:54;;;;;;;1.42;0.63;;;5.60;99.90;;;;;;5009891;28;20032;-64
2022/02/11 12:40:25;;;;;;;1.02;0.60;;;5.60;99.90;;;;;;5011419;28;20064;-63
2022/02/11 12:42:54;;;;;;;2.28;0.77;;;5.60;99.90;;;;;;5011664;28;20034;-65
2022/02/11 12:45:30;;;;;;;3.90;0.65;;;5.60;99.90;;;;;;5011857;28;20032;-63
2022/02/11 12:47:56;;;;;;;1.80;0.60;;;5.60;99.90;;;;;;5009850;28;20030;-62
2022/02/11 12:50:28;;;;;;;1.85;0.50;;;5.60;99.90;;;;;;5017815;28;20286;-63
2022/02/11 12:52:53;;;;;;;5.75;0.73;;;5.60;99.90;;;;;;5009310;28;20500;-65
2022/02/11 12:55:20;;;;;;;0.52;0.50;;;5.60;99.90;;;;;;5011508;28;20025;-61
2022/02/11 12:57:50;;;;;;;1.13;0.60;;;5.60;99.90;;;;;;5021324;28;20108;-65
2022/02/11 13:00:20;;;;;;;1.42;0.85;;;5.60;99.90;;;;;;5013334;28;20482;-64
2022/02/11 13:02:47;;;;;;;3.20;0.85;;;5.60;99.90;;;;;;5010148;28;20522;-65
2022/02/11 13:05:15;;;;;;;3.15;0.80;;;5.60;99.90;;;;;;5012901;28;20290;-64
2022/02/11 13:07:46;;;;;;;1.73;0.52;;;5.60;99.90;;;;;;5011286;28;20017;-65
2022/02/11 13:10:19;;;;;;;1.65;0.60;;;5.50;99.90;;;;;;5008240;28;20453;-62
2022/02/11 13:12:45;;;;;;;0.52;0.30;;;5.50;99.90;;;;;;5006105;28;20034;-62
2022/02/11 13:15:14;;;;;;;3.55;1.73;;;5.50;99.90;;;;;;5003621;28;20018;-61
2022/02/11 13:17:44;;;;;;;1.63;0.70;;;5.50;99.90;;;;;;5006619;28;20022;-61
2022/02/11 13:20:13;;;;;;;4.03;0.70;;;5.50;99.90;;;;;;5010191;28;20030;-62
2022/02/11 13:22:40;;;;;;;3.55;0.60;;;5.50;99.90;;;;;;5009975;28;20025;-63
2022/02/11 13:25:07;;;;;;;1.77;0.55;;;5.50;99.90;;;;;;5008965;28;20446;-63
2022/02/11 13:27:48;;;;;;;2.47;0.68;;;5.40;99.90;;;;;;5008598;28;20363;-67
2022/02/11 13:30:23;;;;;;;1.20;0.70;;;5.40;99.90;;;;;;5010979;28;20038;-64
2022/02/11 13:32:49;;;;;;;1.08;0.55;;;5.40;99.90;;;;;;5006784;28;20022;-62
2022/02/11 13:35:15;;;;;;;1.35;0.70;;;5.30;99.90;;;;;;5007475;28;20092;-61
2022/02/11 13:37:46;;;;;;;1.58;0.95;;;5.30;99.90;;;;;;5024639;28;20510;-62
2022/02/11 13:40:16;;;;;;;1.92;0.95;;;5.30;99.90;;;;;;5015706;28;20030;-62
2022/02/11 13:42:55;;;;;;;1.30;0.80;;;5.30;99.90;;;;;;5011339;28;20056;-64
2022/02/11 13:45:20;;;;;;;1.83;1.00;;;5.30;99.90;;;;;;5011326;28;20033;-64
2022/02/11 13:48:07;;;;;;;3.58;1.48;;;5.30;99.90;;;;;;5011147;28;20083;-64
2022/02/11 13:51:05;;;;;;;1.40;1.05;;;5.30;99.90;;;;;;5010823;28;20652;-63
2022/02/11 13:53:36;;;;;;;5.47;1.80;;;5.30;99.90;;;;;;5014041;28;20498;-63
2022/02/11 13:56:04;;;;;;;3.13;1.48;;;5.20;99.90;;;;;;5018218;28;20069;-61
2022/02/11 13:58:29;;;;;;;3.15;1.40;;;5.20;99.90;;;;;;5016201;28;20155;-64
2022/02/11 14:00:55;;;;;;;3.13;2.25;;;5.10;99.90;;;;;;5016930;28;20065;-64
2022/02/11 14:03:22;;;;;;;2.97;1.90;;;5.00;99.90;;;;;;5016363;28;20049;-62
2022/02/11 14:05:49;;;;;;;7.93;2.63;;;5.00;99.90;;;;;;5018944;28;20104;-64
2022/02/11 14:08:16;;;;;;;2.17;1.67;;;5.00;99.90;;;;;;5016194;28;20026;-62
2022/02/11 14:10:43;;;;;;;2.90;2.50;;;5.00;99.90;;;;;;5019019;28;20030;-64
2022/02/11 14:13:10;;;;;;;3.85;2.55;;;4.90;99.90;;;;;;5015775;28;20080;-63
2022/02/11 14:15:36;;;;;;;3.65;2.50;;;4.90;99.90;;;;;;5010221;28;20171;-63
2022/02/11 14:18:03;;;;;;;3.42;2.20;;;4.80;99.90;;;;;;5013022;28;20104;-63
2022/02/11 14:20:29;;;;;;;4.93;3.47;;;4.80;99.90;;;;;;5017642;28;20042;-62
2022/02/11 14:22:55;;;;;;;4.78;3.22;;;4.80;99.90;;;;;;5012578;28;20229;-60
2022/02/11 14:25:21;;;;;;;3.55;3.05;;;4.80;99.90;;;;;;5011193;28;20735;-62
2022/02/11 14:27:46;;;;;;;3.97;3.50;;;4.70;99.90;;;;;;5005868;28;20041;-60
2022/02/11 14:30:12;;;;;;;4.47;3.60;;;4.70;99.90;;;;;;5007602;28;20102;-62
2022/02/11 14:32:38;;;;;;;7.50;4.38;;;4.70;99.90;;;;;;5020284;28;20033;-59
2022/02/11 14:35:04;;;;;;;4.93;3.97;;;4.70;99.90;;;;;;5012480;28;20422;-62
2022/02/11 14:37:30;;;;;;;5.07;4.53;;;4.60;99.90;;;;;;4994808;28;20503;-60
2022/02/11 14:39:55;;;;;;;6.10;4.63;;;4.60;99.90;;;;;;5017974;28;20052;-62
2022/02/11 14:42:21;;;;;;;6.20;3.97;;;4.60;99.90;;;;;;5016313;28;20490;-62
2022/02/11 14:44:46;;;;;;;;;;;4.60;99.90;;;;;;5014189;28;20112;-61
2022/02/11 14:47:13;;;;;;;4.93;4.25;;;4.60;99.90;;;;;;5019713;28;19916;-61
2022/02/11 14:49:40;;;;;;;8.07;3.97;;;4.50;99.90;;;;;;5020332;28;20034;-62
2022/02/11 14:52:08;;;;;;;6.38;4.85;;;4.60;99.90;;;;;;5008910;28;20060;-62
2022/02/11 14:54:35;;;;;;;7.25;4.07;;;4.50;99.90;;;;;;5022277;28;20034;-64
2022/02/11 14:57:02;;;;;;;6.20;4.65;;;4.50;99.90;;;;;;5011071;28;20450;-60
2022/02/11 14:59:27;;;;;;;6.78;3.67;;;4.60;99.90;;;;;;5015157;28;20112;-63
2022/02/11 15:01:54;;;;;;;6.25;3.85;;;4.60;99.90;;;;;;5010700;28;20156;-63
2022/02/11 15:04:20;;;;;;;5.80;3.70;;;4.60;99.90;;;;;;5012315;28;20516;-65
2022/02/11 15:06:50;;;;;;;5.07;3.08;;;4.60;99.90;;;;;;5010504;28;20105;-62
2022/02/11 15:09:17;;;;;;;6.55;3.63;;;4.60;99.90;;;;;;5019056;28;20029;-62
2022/02/11 15:11:42;;;;;;;3.17;2.60;;;4.60;99.90;;;;;;5010915;28;20411;-63
2022/02/11 15:14:09;;;;;;;6.55;4.68;;;4.60;99.90;;;;;;5017631;28;20042;-61
2022/02/11 15:16:35;;;;;;;4.75;3.03;;;4.60;99.90;;;;;;5015886;28;20052;-63
2022/02/11 15:19:02;;;;;;;5.32;3.75;;;4.60;99.90;;;;;;5011914;28;20436;-64
2022/02/11 15:21:27;;;;;;;3.65;3.17;;;4.60;99.90;;;;;;5010542;28;20041;-63
2022/02/11 15:23:53;;;;;;;7.05;3.28;;;4.60;99.90;;;;;;5017262;28;20676;-65
2022/02/11 15:26:19;;;;;;;6.38;2.33;;;4.60;99.90;;;;;;5011219;28;20041;-62
2022/02/11 15:31:40;;;;;;;4.38;3.13;;;4.60;99.90;;;;;;5003348;28;20037;-63
2022/02/11 15:34:06;;;;;;;7.72;2.92;;;4.60;99.90;;;;;;5010691;28;20021;-63
2022/02/11 15:36:32;;;;;;;7.70;2.60;;;4.70;99.90;;;;;;5014825;28;20414;-62
2022/02/11 15:38:57;;;;;;;12.02;3.17;;;4.70;99.90;;;;;;5014167;28;20565;-64
2022/02/11 15:41:23;;;;;;;;;;;4.70;99.90;;;;;;5008849;28;20030;-64
2022/02/11 15:43:49;;;;;;;4.25;1.88;;;4.70;99.90;;;;;;5010984;28;19914;-62
2022/02/11 15:46:15;;;;;;;2.53;1.98;;;4.70;99.90;;;;;;5011424;28;20024;-64
2022/02/11 15:48:40;;;;;;;2.15;1.55;;;4.70;99.90;;;;;;5022025;28;20029;-65
2022/02/11 15:51:11;;;;;;;4.63;2.17;;;4.70;99.90;;;;;;5025677;28;20025;-63
2022/02/11 15:53:37;;;;;;;4.22;1.77;;;4.60;99.90;;;;;;5011989;28;20547;-63
2022/02/11 15:56:06;;;;;;;3.25;1.67;;;4.60;99.90;;;;;;5009739;28;20057;-63
2022/02/11 15:58:33;;;;;;;4.95;1.52;;;4.60;99.90;;;;;;5008706;28;20042;-61
2022/02/11 16:00:59;;;;;;;3.78;1.40;;;4.50;99.90;;;;;;5009045;28;20026;-63
2022/02/11 16:03:24;;;;;;;1.75;1.20;;;4.40;99.90;;;;;;5013538;28;20418;-62
2022/02/11 16:05:53;;;;;;;4.97;1.25;;;4.40;99.90;;;;;;5018932;28;20116;-63
2022/02/11 16:08:19;;;;;;;2.83;1.33;;;4.40;99.90;;;;;;5012117;28;20032;-60
2022/02/11 16:10:44;;;;;;;5.63;1.00;;;4.30;99.90;;;;;;5016147;28;20026;-62
2022/02/11 16:13:10;;;;;;;1.75;0.63;;;4.30;99.90;;;;;;5008180;28;20073;-61
2022/02/11 16:15:35;;;;;;;4.50;1.15;;;4.30;99.90;;;;;;5015530;28;20076;-62
2022/02/11 16:18:01;;;;;;;;;;;4.20;99.90;;;;;;5009130;28;20084;-61
2022/02/11 16:20:33;;;;;;;4.90;0.82;;;4.20;99.90;;;;;;5012552;28;20389;-60
2022/02/11 16:22:59;;;;;;;4.68;0.55;;;4.10;99.90;;;;;;5008697;28;20371;-62
2022/02/11 16:25:25;;;;;;;3.13;0.68;;;4.10;99.90;;;;;;5010411;28;20033;-62
2022/02/11 16:27:52;;;;;;;5.15;1.20;;;4.10;99.90;;;;;;5006778;28;20299;-63
2022/02/11 16:30:22;;;;;;;3.03;0.88;;;4.00;99.90;;;;;;5009972;28;20041;-64
2022/02/11 16:32:48;;;;;;;4.20;0.65;;;4.00;99.90;;;;;;5011832;28;20028;-65
2022/02/11 16:35:14;;;;;;;1.80;0.70;;;4.00;99.90;;;;;;5008474;28;20033;-63
2022/02/11 16:37:40;;;;;;;2.60;1.05;;;4.00;99.90;;;;;;5009361;28;20065;-64
2022/02/11 16:40:06;;;;;;;5.50;0.95;;;4.00;99.90;;;;;;5011630;28;20030;-64
2022/02/11 16:42:32;;;;;;;4.47;1.30;;;4.00;99.90;;;;;;5014913;28;20061;-63
2022/02/11 16:44:58;;;;;;;2.00;0.70;;;4.00;99.90;;;;;;5017143;28;20068;-62
2022/02/11 16:47:24;;;;;;;12.50;1.00;;;3.90;99.90;;;;;;5018159;28;20033;-62
2022/02/11 16:49:52;;;;;;;7.07;1.35;;;3.90;99.90;;;;;;5019562;28;20042;-62
2022/02/11 16:52:17;;;;;;;4.00;0.85;;;3.90;99.90;;;;;;5028570;22;21070;-56
2022/02/11 16:54:43;;;;;;;2.83;0.63;;;3.90;99.90;;;;;;5043481;28;20067;-61
2022/02/11 16:57:09;;;;;;;7.93;1.00;;;3.90;99.90;;;;;;5044948;28;20056;-60
2022/02/11 16:59:34;;;;;;;2.35;0.70;;;3.90;99.90;;;;;;5043957;28;20068;-55